Terminal Aerodrome Forecast
Issued by NWS

Current Version | Previous Version | Graphics & Text | Print | Product List | Glossary On
Versions: 1 2 3 4 5 6 7 8 9 10 11 12 13 14 15 16 17 18 19 20 21 22 23 24 25 26 27 28 29 30 31 32 33 34 35 36 37 38
000
FTUS41 KRNK 301358 AAA
TAFLWB
TAF AMD
KLWB 301358Z 3014/3112 32010G20KT P6SM SCT015 OVC030
      TEMPO 3014/3016 3SM -SN OVC012
     FM301600 30017G27KT P6SM -SHSN OVC015
     FM302200 30008G16KT P6SM BKN023
     FM310200 29007KT P6SM SCT023=

USA.gov is the U.S. government's official web portal to all federal, state and local government web resources and services.